sensor_id;sensor_type;location;lat;lon;timestamp;temperature;humidity
2314;DHT22;42279;51.388;7.000;2022-11-03T10:41:27;17.00;96.50
2314;DHT22;42279;51.388;7.000;2022-11-03T10:46:40;16.90;96.30
2314;DHT22;42279;51.388;7.000;2022-11-03T10:49:19;17.10;97.70
2314;DHT22;42279;51.388;7.000;2022-11-03T10:51:52;17.00;97.70
2314;DHT22;42279;51.388;7.000;2022-11-03T10:54:21;17.10;97.40
2314;DHT22;42279;51.388;7.000;2022-11-03T10:56:47;16.90;97.40
2314;DHT22;42279;51.388;7.000;2022-11-03T10:59:27;17.20;97.40
2314;DHT22;42279;51.388;7.000;2022-11-03T11:01:59;17.30;95.90
2314;DHT22;42279;51.388;7.000;2022-11-03T11:04:25;17.40;96.60
2314;DHT22;42279;51.388;7.000;2022-11-03T11:06:50;17.50;96.50
2314;DHT22;42279;51.388;7.000;2022-11-03T11:09:22;18.00;95.90
2314;DHT22;42279;51.388;7.000;2022-11-03T11:16:59;18.70;94.70
2314;DHT22;42279;51.388;7.000;2022-11-03T11:19:26;19.50;99.90
2314;DHT22;42279;51.388;7.000;2022-11-03T11:30:00;21.20;87.10
2314;DHT22;42279;51.388;7.000;2022-11-03T11:37:55;21.00;83.30
2314;DHT22;42279;51.388;7.000;2022-11-03T11:48:31;20.00;84.60
2314;DHT22;42279;51.388;7.000;2022-11-03T11:50:57;20.30;86.20
2314;DHT22;42279;51.388;7.000;2022-11-03T11:53:24;20.70;85.50
2314;DHT22;42279;51.388;7.000;2022-11-03T12:16:04;19.40;89.20
2314;DHT22;42279;51.388;7.000;2022-11-03T12:18:32;19.30;91.60
2314;DHT22;42279;51.388;7.000;2022-11-03T12:21:03;18.70;92.00
2314;DHT22;42279;51.388;7.000;2022-11-03T12:23:43;18.50;92.60
2314;DHT22;42279;51.388;7.000;2022-11-03T12:28:50;17.90;94.40
2314;DHT22;42279;51.388;7.000;2022-11-03T12:31:15;17.70;95.80
2314;DHT22;42279;51.388;7.000;2022-11-03T12:33:41;17.50;98.80
2314;DHT22;42279;51.388;7.000;2022-11-03T12:36:07;17.50;98.40
2314;DHT22;42279;51.388;7.000;2022-11-03T12:38:33;17.50;99.90
2314;DHT22;42279;51.388;7.000;2022-11-03T12:40:59;17.90;99.80
2314;DHT22;42279;51.388;7.000;2022-11-03T12:46:12;17.40;98.60
2314;DHT22;42279;51.388;7.000;2022-11-03T12:48:37;17.90;98.80
2314;DHT22;42279;51.388;7.000;2022-11-03T12:51:09;18.30;98.30
2314;DHT22;42279;51.388;7.000;2022-11-03T12:53:35;17.80;98.30
2314;DHT22;42279;51.388;7.000;2022-11-03T12:56:00;17.70;98.20
2314;DHT22;42279;51.388;7.000;2022-11-03T12:58:26;17.80;98.30
2314;DHT22;42279;51.388;7.000;2022-11-03T13:00:52;17.90;98.50
2314;DHT22;42279;51.388;7.000;2022-11-03T13:03:17;17.80;98.70
2314;DHT22;42279;51.388;7.000;2022-11-03T13:05:43;17.50;98.60
2314;DHT22;42279;51.388;7.000;2022-11-03T13:08:08;17.50;98.60
2314;DHT22;42279;51.388;7.000;2022-11-03T13:10:34;17.90;99.40
2314;DHT22;42279;51.388;7.000;2022-11-03T13:12:59;17.20;99.90
2314;DHT22;42279;51.388;7.000;2022-11-03T13:15:25;17.70;99.90
2314;DHT22;42279;51.388;7.000;2022-11-03T13:17:51;16.80;99.90
2314;DHT22;42279;51.388;7.000;2022-11-03T13:20:16;17.00;99.90
2314;DHT22;42279;51.388;7.000;2022-11-03T13:22:42;16.80;99.90
2314;DHT22;42279;51.388;7.000;2022-11-03T13:25:08;16.60;99.90
2314;DHT22;42279;51.388;7.000;2022-11-03T13:27:34;16.70;99.90
2314;DHT22;42279;51.388;7.000;2022-11-03T13:30:00;17.50;99.90
2314;DHT22;42279;51.388;7.000;2022-11-03T13:32:25;16.90;99.90
2314;DHT22;42279;51.388;7.000;2022-11-03T13:34:51;16.40;99.90
2314;DHT22;42279;51.388;7.000;2022-11-03T13:37:16;16.50;99.90
2314;DHT22;42279;51.388;7.000;2022-11-03T13:39:42;17.00;99.90
2314;DHT22;42279;51.388;7.000;2022-11-03T13:42:08;16.90;99.90
2314;DHT22;42279;51.388;7.000;2022-11-03T13:44:33;17.20;99.90
2314;DHT22;42279;51.388;7.000;2022-11-03T13:46:59;16.40;99.90
2314;DHT22;42279;51.388;7.000;2022-11-03T13:49:25;16.70;99.90
2314;DHT22;42279;51.388;7.000;2022-11-03T13:51:53;16.70;99.90
2314;DHT22;42279;51.388;7.000;2022-11-03T13:54:19;16.60;99.90
2314;DHT22;42279;51.388;7.000;2022-11-03T13:56:44;16.70;99.90
2314;DHT22;42279;51.388;7.000;2022-11-03T13:59:10;16.60;99.90
2314;DHT22;42279;51.388;7.000;2022-11-03T14:01:36;16.60;99.90
2314;DHT22;42279;51.388;7.000;2022-11-03T14:04:01;16.80;99.90
2314;DHT22;42279;51.388;7.000;2022-11-03T14:06:27;16.50;99.90
2314;DHT22;42279;51.388;7.000;2022-11-03T14:14:03;16.30;94.20
2314;DHT22;42279;51.388;7.000;2022-11-03T14:16:28;16.40;95.60
2314;DHT22;42279;51.388;7.000;2022-11-03T14:18:54;16.50;95.90
2314;DHT22;42279;51.388;7.000;2022-11-03T14:21:20;16.80;95.80
2314;DHT22;42279;51.388;7.000;2022-11-03T14:23:45;16.90;96.00
2314;DHT22;42279;51.388;7.000;2022-11-03T14:26:11;16.60;96.60
2314;DHT22;42279;51.388;7.000;2022-11-03T14:28:36;16.70;96.70
2314;DHT22;42279;51.388;7.000;2022-11-03T14:31:02;16.50;96.00
2314;DHT22;42279;51.388;7.000;2022-11-03T14:33:29;16.40;96.00
2314;DHT22;42279;51.388;7.000;2022-11-03T14:35:55;16.40;95.70
2314;DHT22;42279;51.388;7.000;2022-11-03T14:38:21;16.60;96.60
2314;DHT22;42279;51.388;7.000;2022-11-03T14:40:46;16.50;96.50
2314;DHT22;42279;51.388;7.000;2022-11-03T14:43:30;16.90;95.90
2314;DHT22;42279;51.388;7.000;2022-11-03T14:45:56;16.20;96.70
2314;DHT22;42279;51.388;7.000;2022-11-03T14:50:47;15.70;95.80
2314;DHT22;42279;51.388;7.000;2022-11-03T14:53:14;16.50;97.80
2314;DHT22;42279;51.388;7.000;2022-11-03T14:55:40;15.70;97.40
2314;DHT22;42279;51.388;7.000;2022-11-03T15:32:31;14.20;99.90
2314;DHT22;42279;51.388;7.000;2022-11-03T15:34:57;14.20;99.90
2314;DHT22;42279;51.388;7.000;2022-11-03T15:37:23;14.30;99.90
2314;DHT22;42279;51.388;7.000;2022-11-03T15:39:49;13.60;99.90
2314;DHT22;42279;51.388;7.000;2022-11-03T15:42:15;13.70;99.90
2314;DHT22;42279;51.388;7.000;2022-11-03T15:44:40;13.60;99.90
2314;DHT22;42279;51.388;7.000;2022-11-03T15:47:06;13.80;99.90
2314;DHT22;42279;51.388;7.000;2022-11-03T15:49:32;14.50;99.90
2314;DHT22;42279;51.388;7.000;2022-11-03T15:51:57;13.30;99.90
